sensor_id;sensor_type;location;lat;lon;timestamp;P1;durP1;ratioP1;P2;durP2;ratioP2
37049;SDS011;22958;51.232;6.826;2024-02-21T00:02:06;49.30;;;13.93;;
37049;SDS011;22958;51.232;6.826;2024-02-21T00:04:32;42.93;;;13.73;;
37049;SDS011;22958;51.232;6.826;2024-02-21T00:06:58;37.97;;;12.37;;
37049;SDS011;22958;51.232;6.826;2024-02-21T00:09:24;41.42;;;12.85;;
37049;SDS011;22958;51.232;6.826;2024-02-21T00:11:49;34.93;;;12.37;;
37049;SDS011;22958;51.232;6.826;2024-02-21T00:14:15;44.30;;;11.87;;
37049;SDS011;22958;51.232;6.826;2024-02-21T00:16:41;40.05;;;13.18;;
37049;SDS011;22958;51.232;6.826;2024-02-21T00:19:06;51.60;;;13.57;;
37049;SDS011;22958;51.232;6.826;2024-02-21T00:21:32;38.90;;;12.90;;
37049;SDS011;22958;51.232;6.826;2024-02-21T00:23:57;36.13;;;14.13;;
37049;SDS011;22958;51.232;6.826;2024-02-21T00:26:23;36.40;;;13.03;;
37049;SDS011;22958;51.232;6.826;2024-02-21T00:28:48;50.50;;;13.47;;
37049;SDS011;22958;51.232;6.826;2024-02-21T00:31:14;39.67;;;12.60;;
37049;SDS011;22958;51.232;6.826;2024-02-21T00:33:40;46.03;;;13.10;;
37049;SDS011;22958;51.232;6.826;2024-02-21T00:36:05;42.77;;;13.47;;
37049;SDS011;22958;51.232;6.826;2024-02-21T00:38:31;42.25;;;12.05;;
37049;SDS011;22958;51.232;6.826;2024-02-21T00:40:57;51.00;;;13.57;;
37049;SDS011;22958;51.232;6.826;2024-02-21T00:43:22;40.87;;;13.50;;
37049;SDS011;22958;51.232;6.826;2024-02-21T00:45:49;32.50;;;12.65;;
37049;SDS011;22958;51.232;6.826;2024-02-21T00:48:15;41.38;;;13.25;;
37049;SDS011;22958;51.232;6.826;2024-02-21T00:50:40;36.93;;;11.90;;
37049;SDS011;22958;51.232;6.826;2024-02-21T00:53:06;38.73;;;12.93;;
37049;SDS011;22958;51.232;6.826;2024-02-21T00:55:31;38.77;;;12.83;;
37049;SDS011;22958;51.232;6.826;2024-02-21T00:57:57;42.53;;;12.00;;
37049;SDS011;22958;51.232;6.826;2024-02-21T01:00:22;47.73;;;13.67;;
37049;SDS011;22958;51.232;6.826;2024-02-21T01:02:48;47.87;;;13.63;;
37049;SDS011;22958;51.232;6.826;2024-02-21T01:05:13;40.80;;;12.90;;
37049;SDS011;22958;51.232;6.826;2024-02-21T01:07:39;38.90;;;12.07;;
37049;SDS011;22958;51.232;6.826;2024-02-21T01:10:05;49.37;;;13.83;;
37049;SDS011;22958;51.232;6.826;2024-02-21T01:12:31;39.33;;;13.27;;
37049;SDS011;22958;51.232;6.826;2024-02-21T01:14:56;43.67;;;13.20;;
37049;SDS011;22958;51.232;6.826;2024-02-21T01:17:22;42.10;;;12.60;;
37049;SDS011;22958;51.232;6.826;2024-02-21T01:19:47;32.20;;;12.30;;
37049;SDS011;22958;51.232;6.826;2024-02-21T01:22:13;42.87;;;13.27;;
37049;SDS011;22958;51.232;6.826;2024-02-21T01:24:39;36.65;;;11.88;;
37049;SDS011;22958;51.232;6.826;2024-02-21T01:27:05;38.27;;;12.33;;
37049;SDS011;22958;51.232;6.826;2024-02-21T01:29:31;51.80;;;14.13;;
37049;SDS011;22958;51.232;6.826;2024-02-21T01:31:56;51.40;;;14.07;;
37049;SDS011;22958;51.232;6.826;2024-02-21T01:34:22;46.27;;;13.77;;
37049;SDS011;22958;51.232;6.826;2024-02-21T01:36:47;38.30;;;12.37;;
37049;SDS011;22958;51.232;6.826;2024-02-21T01:39:13;48.03;;;13.40;;
37049;SDS011;22958;51.232;6.826;2024-02-21T01:41:38;42.37;;;12.53;;
37049;SDS011;22958;51.232;6.826;2024-02-21T01:44:04;42.63;;;13.07;;
37049;SDS011;22958;51.232;6.826;2024-02-21T01:46:29;44.77;;;12.77;;
37049;SDS011;22958;51.232;6.826;2024-02-21T01:48:55;38.63;;;12.13;;
37049;SDS011;22958;51.232;6.826;2024-02-21T01:51:22;35.90;;;11.63;;
37049;SDS011;22958;51.232;6.826;2024-02-21T01:53:48;43.58;;;12.05;;
37049;SDS011;22958;51.232;6.826;2024-02-21T01:56:15;31.23;;;11.13;;
37049;SDS011;22958;51.232;6.826;2024-02-21T01:58:42;41.33;;;12.82;;
37049;SDS011;22958;51.232;6.826;2024-02-21T02:03:37;31.23;;;11.40;;
37049;SDS011;22958;51.232;6.826;2024-02-21T02:06:04;34.60;;;11.77;;
37049;SDS011;22958;51.232;6.826;2024-02-21T02:08:31;40.05;;;11.45;;
37049;SDS011;22958;51.232;6.826;2024-02-21T02:10:57;44.00;;;11.90;;
37049;SDS011;22958;51.232;6.826;2024-02-21T02:13:24;42.03;;;11.43;;
37049;SDS011;22958;51.232;6.826;2024-02-21T02:15:50;46.80;;;12.43;;
37049;SDS011;22958;51.232;6.826;2024-02-21T02:18:16;42.97;;;12.07;;
37049;SDS011;22958;51.232;6.826;2024-02-21T02:23:12;42.63;;;11.60;;
37049;SDS011;22958;51.232;6.826;2024-02-21T02:25:52;39.42;;;11.60;;
37049;SDS011;22958;51.232;6.826;2024-02-21T02:28:18;36.23;;;11.93;;
37049;SDS011;22958;51.232;6.826;2024-02-21T02:30:44;42.93;;;12.90;;
37049;SDS011;22958;51.232;6.826;2024-02-21T02:33:09;38.57;;;11.47;;
37049;SDS011;22958;51.232;6.826;2024-02-21T02:35:35;33.80;;;11.97;;
37049;SDS011;22958;51.232;6.826;2024-02-21T02:38:01;35.92;;;11.07;;
37049;SDS011;22958;51.232;6.826;2024-02-21T02:40:27;44.20;;;11.60;;
37049;SDS011;22958;51.232;6.826;2024-02-21T02:42:53;41.27;;;11.53;;
37049;SDS011;22958;51.232;6.826;2024-02-21T02:47:46;35.83;;;11.90;;
37049;SDS011;22958;51.232;6.826;2024-02-21T02:50:12;38.17;;;11.07;;
37049;SDS011;22958;51.232;6.826;2024-02-21T02:52:37;44.00;;;13.13;;
37049;SDS011;22958;51.232;6.826;2024-02-21T02:55:03;32.20;;;11.43;;
37049;SDS011;22958;51.232;6.826;2024-02-21T02:59:55;37.17;;;11.13;;
37049;SDS011;22958;51.232;6.826;2024-02-21T03:02:21;40.37;;;12.73;;
37049;SDS011;22958;51.232;6.826;2024-02-21T03:04:46;38.63;;;11.90;;
37049;SDS011;22958;51.232;6.826;2024-02-21T03:07:12;34.83;;;11.27;;
37049;SDS011;22958;51.232;6.826;2024-02-21T03:09:39;41.50;;;11.70;;
37049;SDS011;22958;51.232;6.826;2024-02-21T03:12:05;33.27;;;10.93;;
37049;SDS011;22958;51.232;6.826;2024-02-21T03:14:31;40.13;;;11.32;;
37049;SDS011;22958;51.232;6.826;2024-02-21T03:16:57;38.78;;;11.80;;
37049;SDS011;22958;51.232;6.826;2024-02-21T03:19:23;31.37;;;9.83;;
37049;SDS011;22958;51.232;6.826;2024-02-21T03:21:49;40.10;;;13.80;;
37049;SDS011;22958;51.232;6.826;2024-02-21T03:24:15;47.87;;;11.80;;
37049;SDS011;22958;51.232;6.826;2024-02-21T03:26:41;34.28;;;10.90;;
37049;SDS011;22958;51.232;6.826;2024-02-21T03:29:07;39.55;;;12.25;;
37049;SDS011;22958;51.232;6.826;2024-02-21T03:33:59;35.30;;;10.20;;
37049;SDS011;22958;51.232;6.826;2024-02-21T03:36:25;32.47;;;11.53;;
37049;SDS011;22958;51.232;6.826;2024-02-21T03:38:50;42.97;;;11.03;;
37049;SDS011;22958;51.232;6.826;2024-02-21T03:41:16;42.17;;;10.77;;
37049;SDS011;22958;51.232;6.826;2024-02-21T03:43:41;34.67;;;10.83;;
37049;SDS011;22958;51.232;6.826;2024-02-21T03:46:07;32.37;;;10.57;;
37049;SDS011;22958;51.232;6.826;2024-02-21T03:48:32;27.63;;;10.37;;
37049;SDS011;22958;51.232;6.826;2024-02-21T03:50:58;31.10;;;10.13;;
37049;SDS011;22958;51.232;6.826;2024-02-21T03:53:24;35.83;;;10.45;;
37049;SDS011;22958;51.232;6.826;2024-02-21T03:55:49;34.33;;;10.77;;
37049;SDS011;22958;51.232;6.826;2024-02-21T03:58:15;30.03;;;9.53;;
37049;SDS011;22958;51.232;6.826;2024-02-21T04:00:40;22.80;;;9.37;;
37049;SDS011;22958;51.232;6.826;2024-02-21T04:03:06;32.03;;;8.80;;
37049;SDS011;22958;51.232;6.826;2024-02-21T04:05:32;34.80;;;10.00;;
37049;SDS011;22958;51.232;6.826;2024-02-21T04:07:58;36.08;;;11.45;;
37049;SDS011;22958;51.232;6.826;2024-02-21T04:10:23;33.93;;;9.60;;
37049;SDS011;22958;51.232;6.826;2024-02-21T04:12:49;27.40;;;9.03;;
37049;SDS011;22958;51.232;6.826;2024-02-21T04:15:15;39.42;;;9.23;;
37049;SDS011;22958;51.232;6.826;2024-02-21T04:17:41;31.33;;;9.93;;
37049;SDS011;22958;51.232;6.826;2024-02-21T04:20:13;28.57;;;9.90;;
37049;SDS011;22958;51.232;6.826;2024-02-21T04:22:39;33.35;;;9.25;;
37049;SDS011;22958;51.232;6.826;2024-02-21T04:25:05;37.43;;;10.07;;
37049;SDS011;22958;51.232;6.826;2024-02-21T04:27:31;33.97;;;8.93;;
37049;SDS011;22958;51.232;6.826;2024-02-21T04:29:56;26.07;;;8.10;;
37049;SDS011;22958;51.232;6.826;2024-02-21T04:32:22;25.37;;;8.70;;
37049;SDS011;22958;51.232;6.826;2024-02-21T04:34:48;30.13;;;9.47;;
37049;SDS011;22958;51.232;6.826;2024-02-21T04:37:13;26.17;;;9.37;;
37049;SDS011;22958;51.232;6.826;2024-02-21T04:39:39;36.47;;;9.07;;
37049;SDS011;22958;51.232;6.826;2024-02-21T04:42:04;27.53;;;8.00;;
37049;SDS011;22958;51.232;6.826;2024-02-21T04:44:30;28.20;;;8.80;;
37049;SDS011;22958;51.232;6.826;2024-02-21T04:46:55;27.50;;;8.33;;
37049;SDS011;22958;51.232;6.826;2024-02-21T04:49:21;20.13;;;8.30;;
37049;SDS011;22958;51.232;6.826;2024-02-21T04:51:47;39.33;;;8.87;;
37049;SDS011;22958;51.232;6.826;2024-02-21T04:54:12;22.53;;;8.27;;
37049;SDS011;22958;51.232;6.826;2024-02-21T04:56:38;29.07;;;9.10;;
37049;SDS011;22958;51.232;6.826;2024-02-21T04:59:03;23.10;;;8.43;;
37049;SDS011;22958;51.232;6.826;2024-02-21T05:01:29;31.27;;;7.90;;
37049;SDS011;22958;51.232;6.826;2024-02-21T05:03:54;27.53;;;8.60;;
37049;SDS011;22958;51.232;6.826;2024-02-21T05:06:20;29.47;;;8.07;;
37049;SDS011;22958;51.232;6.826;2024-02-21T05:08:45;29.83;;;8.47;;
37049;SDS011;22958;51.232;6.826;2024-02-21T05:11:12;28.95;;;7.68;;
37049;SDS011;22958;51.232;6.826;2024-02-21T05:13:38;24.00;;;8.63;;
37049;SDS011;22958;51.232;6.826;2024-02-21T05:16:04;27.83;;;8.30;;
37049;SDS011;22958;51.232;6.826;2024-02-21T05:18:30;37.63;;;8.75;;
37049;SDS011;22958;51.232;6.826;2024-02-21T05:20:55;24.67;;;8.00;;
37049;SDS011;22958;51.232;6.826;2024-02-21T05:23:21;31.70;;;8.90;;
37049;SDS011;22958;51.232;6.826;2024-02-21T05:25:46;29.97;;;9.47;;
37049;SDS011;22958;51.232;6.826;2024-02-21T05:28:12;42.67;;;8.67;;
37049;SDS011;22958;51.232;6.826;2024-02-21T05:30:38;29.60;;;7.53;;
37049;SDS011;22958;51.232;6.826;2024-02-21T05:33:07;25.83;;;7.60;;
37049;SDS011;22958;51.232;6.826;2024-02-21T05:35:33;23.90;;;7.85;;
37049;SDS011;22958;51.232;6.826;2024-02-21T05:37:59;27.85;;;7.22;;
37049;SDS011;22958;51.232;6.826;2024-02-21T05:40:25;26.03;;;7.97;;
37049;SDS011;22958;51.232;6.826;2024-02-21T05:42:51;21.33;;;7.73;;
37049;SDS011;22958;51.232;6.826;2024-02-21T05:45:17;21.08;;;7.57;;
37049;SDS011;22958;51.232;6.826;2024-02-21T05:47:43;27.58;;;8.38;;
37049;SDS011;22958;51.232;6.826;2024-02-21T05:50:09;23.90;;;7.70;;
37049;SDS011;22958;51.232;6.826;2024-02-21T05:52:35;18.63;;;7.18;;
37049;SDS011;22958;51.232;6.826;2024-02-21T05:55:00;24.47;;;7.43;;
37049;SDS011;22958;51.232;6.826;2024-02-21T05:57:26;30.70;;;8.10;;
37049;SDS011;22958;51.232;6.826;2024-02-21T05:59:51;27.33;;;7.80;;
37049;SDS011;22958;51.232;6.826;2024-02-21T06:02:17;27.07;;;8.23;;
37049;SDS011;22958;51.232;6.826;2024-02-21T06:04:43;28.47;;;8.83;;
37049;SDS011;22958;51.232;6.826;2024-02-21T06:07:11;22.98;;;7.50;;
37049;SDS011;22958;51.232;6.826;2024-02-21T06:09:36;27.03;;;8.27;;
37049;SDS011;22958;51.232;6.826;2024-02-21T06:12:02;25.97;;;9.07;;
37049;SDS011;22958;51.232;6.826;2024-02-21T06:14:28;26.30;;;7.13;;
37049;SDS011;22958;51.232;6.826;2024-02-21T06:16:53;35.67;;;8.80;;
37049;SDS011;22958;51.232;6.826;2024-02-21T06:19:19;23.40;;;7.17;;
37049;SDS011;22958;51.232;6.826;2024-02-21T06:21:44;21.53;;;6.83;;
37049;SDS011;22958;51.232;6.826;2024-02-21T06:24:10;34.07;;;7.33;;
37049;SDS011;22958;51.232;6.826;2024-02-21T06:26:37;23.65;;;7.40;;
37049;SDS011;22958;51.232;6.826;2024-02-21T06:29:02;25.67;;;7.03;;
37049;SDS011;22958;51.232;6.826;2024-02-21T06:31:28;36.07;;;7.30;;
37049;SDS011;22958;51.232;6.826;2024-02-21T06:33:54;22.97;;;6.93;;
37049;SDS011;22958;51.232;6.826;2024-02-21T06:36:19;19.27;;;6.40;;
37049;SDS011;22958;51.232;6.826;2024-02-21T06:38:45;24.43;;;7.30;;
37049;SDS011;22958;51.232;6.826;2024-02-21T06:41:14;19.83;;;6.60;;
37049;SDS011;22958;51.232;6.826;2024-02-21T06:43:40;18.67;;;6.32;;
37049;SDS011;22958;51.232;6.826;2024-02-21T06:46:06;21.70;;;6.57;;
37049;SDS011;22958;51.232;6.826;2024-02-21T06:48:31;27.13;;;7.50;;
37049;SDS011;22958;51.232;6.826;2024-02-21T06:50:57;29.63;;;6.93;;
37049;SDS011;22958;51.232;6.826;2024-02-21T06:53:22;21.97;;;6.63;;
37049;SDS011;22958;51.232;6.826;2024-02-21T06:55:48;20.83;;;7.37;;
37049;SDS011;22958;51.232;6.826;2024-02-21T06:58:13;23.50;;;6.90;;
37049;SDS011;22958;51.232;6.826;2024-02-21T07:00:42;25.02;;;6.80;;
37049;SDS011;22958;51.232;6.826;2024-02-21T07:03:07;26.42;;;7.03;;
37049;SDS011;22958;51.232;6.826;2024-02-21T07:05:33;21.43;;;6.97;;
37049;SDS011;22958;51.232;6.826;2024-02-21T07:07:58;26.03;;;7.83;;
37049;SDS011;22958;51.232;6.826;2024-02-21T07:10:24;21.27;;;6.50;;
37049;SDS011;22958;51.232;6.826;2024-02-21T07:12:49;21.40;;;7.60;;
37049;SDS011;22958;51.232;6.826;2024-02-21T07:15:17;17.63;;;6.88;;
37049;SDS011;22958;51.232;6.826;2024-02-21T07:17:42;24.57;;;6.63;;
37049;SDS011;22958;51.232;6.826;2024-02-21T07:20:08;24.23;;;6.03;;
37049;SDS011;22958;51.232;6.826;2024-02-21T07:22:34;21.00;;;6.23;;
37049;SDS011;22958;51.232;6.826;2024-02-21T07:24:59;17.63;;;5.47;;
37049;SDS011;22958;51.232;6.826;2024-02-21T07:27:25;22.53;;;6.20;;
37049;SDS011;22958;51.232;6.826;2024-02-21T07:29:53;16.17;;;5.53;;
37049;SDS011;22958;51.232;6.826;2024-02-21T07:32:19;21.00;;;4.82;;
37049;SDS011;22958;51.232;6.826;2024-02-21T07:34:44;22.57;;;5.33;;
37049;SDS011;22958;51.232;6.826;2024-02-21T07:37:10;13.67;;;5.07;;
37049;SDS011;22958;51.232;6.826;2024-02-21T07:39:36;15.10;;;5.03;;
37049;SDS011;22958;51.232;6.826;2024-02-21T07:42:04;21.08;;;5.75;;
37049;SDS011;22958;51.232;6.826;2024-02-21T07:44:31;13.80;;;5.50;;
37049;SDS011;22958;51.232;6.826;2024-02-21T07:46:57;18.25;;;5.25;;
37049;SDS011;22958;51.232;6.826;2024-02-21T07:49:23;20.00;;;5.37;;
37049;SDS011;22958;51.232;6.826;2024-02-21T07:51:48;21.57;;;5.80;;
37049;SDS011;22958;51.232;6.826;2024-02-21T07:54:14;21.40;;;5.60;;
37049;SDS011;22958;51.232;6.826;2024-02-21T07:56:39;25.87;;;6.17;;
37049;SDS011;22958;51.232;6.826;2024-02-21T07:59:05;16.80;;;5.67;;
37049;SDS011;22958;51.232;6.826;2024-02-21T08:01:30;28.77;;;5.73;;
37049;SDS011;22958;51.232;6.826;2024-02-21T08:03:56;19.73;;;5.37;;
37049;SDS011;22958;51.232;6.826;2024-02-21T08:06:21;18.93;;;5.57;;
37049;SDS011;22958;51.232;6.826;2024-02-21T08:08:47;21.83;;;5.63;;
37049;SDS011;22958;51.232;6.826;2024-02-21T08:11:13;16.70;;;5.33;;
37049;SDS011;22958;51.232;6.826;2024-02-21T08:13:38;17.47;;;5.40;;
37049;SDS011;22958;51.232;6.826;2024-02-21T08:16:04;23.30;;;5.80;;
37049;SDS011;22958;51.232;6.826;2024-02-21T08:18:30;19.30;;;5.07;;
37049;SDS011;22958;51.232;6.826;2024-02-21T08:20:55;30.23;;;5.70;;
37049;SDS011;22958;51.232;6.826;2024-02-21T08:23:22;25.63;;;5.43;;
37049;SDS011;22958;51.232;6.826;2024-02-21T08:25:49;22.70;;;5.20;;
37049;SDS011;22958;51.232;6.826;2024-02-21T08:28:14;23.00;;;5.47;;
37049;SDS011;22958;51.232;6.826;2024-02-21T08:30:40;19.00;;;5.20;;
37049;SDS011;22958;51.232;6.826;2024-02-21T08:33:09;23.63;;;5.53;;
37049;SDS011;22958;51.232;6.826;2024-02-21T08:35:34;21.60;;;5.37;;
37049;SDS011;22958;51.232;6.826;2024-02-21T08:38:00;26.93;;;6.40;;
37049;SDS011;22958;51.232;6.826;2024-02-21T08:40:26;33.33;;;7.13;;
37049;SDS011;22958;51.232;6.826;2024-02-21T08:42:51;31.83;;;6.67;;
37049;SDS011;22958;51.232;6.826;2024-02-21T08:45:18;26.58;;;6.50;;
37049;SDS011;22958;51.232;6.826;2024-02-21T08:47:44;28.83;;;7.33;;
37049;SDS011;22958;51.232;6.826;2024-02-21T08:50:09;32.43;;;7.53;;
37049;SDS011;22958;51.232;6.826;2024-02-21T08:52:36;24.30;;;7.10;;
37049;SDS011;22958;51.232;6.826;2024-02-21T08:55:01;24.00;;;7.07;;
37049;SDS011;22958;51.232;6.826;2024-02-21T08:57:27;28.97;;;6.93;;
37049;SDS011;22958;51.232;6.826;2024-02-21T08:59:53;19.87;;;6.13;;
37049;SDS011;22958;51.232;6.826;2024-02-21T09:02:18;23.67;;;6.67;;
37049;SDS011;22958;51.232;6.826;2024-02-21T09:04:44;29.43;;;6.87;;
37049;SDS011;22958;51.232;6.826;2024-02-21T09:07:10;19.63;;;6.47;;
37049;SDS011;22958;51.232;6.826;2024-02-21T09:09:35;20.23;;;5.95;;
37049;SDS011;22958;51.232;6.826;2024-02-21T09:12:03;26.77;;;6.55;;
37049;SDS011;22958;51.232;6.826;2024-02-21T09:14:31;40.22;;;8.02;;
37049;SDS011;22958;51.232;6.826;2024-02-21T09:16:57;39.40;;;7.85;;
37049;SDS011;22958;51.232;6.826;2024-02-21T09:19:23;21.03;;;7.70;;
37049;SDS011;22958;51.232;6.826;2024-02-21T09:21:48;35.40;;;9.57;;
37049;SDS011;22958;51.232;6.826;2024-02-21T09:24:14;26.70;;;7.70;;
37049;SDS011;22958;51.232;6.826;2024-02-21T09:26:40;28.67;;;7.83;;
37049;SDS011;22958;51.232;6.826;2024-02-21T09:29:05;36.40;;;7.70;;
37049;SDS011;22958;51.232;6.826;2024-02-21T09:31:31;26.37;;;7.03;;
37049;SDS011;22958;51.232;6.826;2024-02-21T09:33:57;32.97;;;7.50;;
37049;SDS011;22958;51.232;6.826;2024-02-21T09:36:22;23.83;;;6.87;;
37049;SDS011;22958;51.232;6.826;2024-02-21T09:38:49;23.80;;;7.60;;
37049;SDS011;22958;51.232;6.826;2024-02-21T09:41:15;21.63;;;7.70;;
37049;SDS011;22958;51.232;6.826;2024-02-21T09:43:45;28.90;;;6.53;;
37049;SDS011;22958;51.232;6.826;2024-02-21T09:46:17;21.47;;;6.33;;
37049;SDS011;22958;51.232;6.826;2024-02-21T09:49:21;19.85;;;6.75;;
37049;SDS011;22958;51.232;6.826;2024-02-21T09:51:38;23.25;;;6.82;;
37049;SDS011;22958;51.232;6.826;2024-02-21T09:54:07;19.90;;;6.90;;
37049;SDS011;22958;51.232;6.826;2024-02-21T09:56:32;25.15;;;6.25;;
37049;SDS011;22958;51.232;6.826;2024-02-21T09:58:58;20.90;;;6.53;;
37049;SDS011;22958;51.232;6.826;2024-02-21T10:01:25;18.50;;;5.38;;
37049;SDS011;22958;51.232;6.826;2024-02-21T10:03:51;16.10;;;5.87;;
37049;SDS011;22958;51.232;6.826;2024-02-21T10:06:16;28.83;;;6.00;;
37049;SDS011;22958;51.232;6.826;2024-02-21T10:08:42;15.67;;;5.60;;
37049;SDS011;22958;51.232;6.826;2024-02-21T10:11:07;19.17;;;5.30;;
37049;SDS011;22958;51.232;6.826;2024-02-21T10:13:34;19.20;;;5.57;;
37049;SDS011;22958;51.232;6.826;2024-02-21T10:16:03;20.07;;;5.07;;
37049;SDS011;22958;51.232;6.826;2024-02-21T10:18:29;28.83;;;5.82;;
37049;SDS011;22958;51.232;6.826;2024-02-21T10:21:05;19.73;;;5.07;;
37049;SDS011;22958;51.232;6.826;2024-02-21T10:28:55;13.13;;;4.35;;
37049;SDS011;22958;51.232;6.826;2024-02-21T10:31:25;18.20;;;5.13;;
37049;SDS011;22958;51.232;6.826;2024-02-21T10:36:24;16.08;;;4.53;;
37049;SDS011;22958;51.232;6.826;2024-02-21T10:38:51;14.23;;;3.85;;
37049;SDS011;22958;51.232;6.826;2024-02-21T10:41:19;14.90;;;4.10;;
37049;SDS011;22958;51.232;6.826;2024-02-21T10:43:46;17.63;;;4.22;;
37049;SDS011;22958;51.232;6.826;2024-02-21T10:46:18;11.77;;;3.38;;
37049;SDS011;22958;51.232;6.826;2024-02-21T10:48:45;18.63;;;3.95;;
37049;SDS011;22958;51.232;6.826;2024-02-21T10:51:18;10.43;;;3.75;;
37049;SDS011;22958;51.232;6.826;2024-02-21T10:53:47;12.30;;;3.88;;
37049;SDS011;22958;51.232;6.826;2024-02-21T10:56:31;16.50;;;3.88;;
37049;SDS011;22958;51.232;6.826;2024-02-21T10:59:05;18.83;;;4.60;;
37049;SDS011;22958;51.232;6.826;2024-02-21T11:01:31;14.57;;;4.15;;
37049;SDS011;22958;51.232;6.826;2024-02-21T11:03:58;15.32;;;4.60;;
37049;SDS011;22958;51.232;6.826;2024-02-21T11:06:28;26.80;;;4.60;;
37049;SDS011;22958;51.232;6.826;2024-02-21T11:09:03;16.30;;;3.88;;
37049;SDS011;22958;51.232;6.826;2024-02-21T11:11:33;12.55;;;3.92;;
37049;SDS011;22958;51.232;6.826;2024-02-21T11:14:18;14.10;;;4.43;;
37049;SDS011;22958;51.232;6.826;2024-02-21T11:16:45;14.63;;;5.25;;
37049;SDS011;22958;51.232;6.826;2024-02-21T11:19:20;20.00;;;4.32;;
37049;SDS011;22958;51.232;6.826;2024-02-21T11:21:51;22.27;;;4.63;;
37049;SDS011;22958;51.232;6.826;2024-02-21T11:24:28;18.42;;;4.78;;
37049;SDS011;22958;51.232;6.826;2024-02-21T11:26:54;14.30;;;4.13;;
37049;SDS011;22958;51.232;6.826;2024-02-21T11:29:24;16.40;;;4.57;;
37049;SDS011;22958;51.232;6.826;2024-02-21T11:31:50;19.73;;;4.25;;
37049;SDS011;22958;51.232;6.826;2024-02-21T11:34:17;15.88;;;4.30;;
37049;SDS011;22958;51.232;6.826;2024-02-21T11:36:51;19.50;;;4.93;;
37049;SDS011;22958;51.232;6.826;2024-02-21T11:39:24;21.10;;;4.53;;
37049;SDS011;22958;51.232;6.826;2024-02-21T11:42:03;15.75;;;4.97;;
37049;SDS011;22958;51.232;6.826;2024-02-21T11:44:30;20.50;;;4.32;;
37049;SDS011;22958;51.232;6.826;2024-02-21T11:46:57;15.98;;;4.45;;
37049;SDS011;22958;51.232;6.826;2024-02-21T11:49:26;22.83;;;4.55;;
37049;SDS011;22958;51.232;6.826;2024-02-21T11:52:01;10.90;;;3.58;;
37049;SDS011;22958;51.232;6.826;2024-02-21T11:54:29;20.70;;;4.88;;
37049;SDS011;22958;51.232;6.826;2024-02-21T11:56:59;16.17;;;3.95;;
37049;SDS011;22958;51.232;6.826;2024-02-21T11:59:25;15.27;;;3.85;;
37049;SDS011;22958;51.232;6.826;2024-02-21T12:01:52;15.13;;;4.33;;
37049;SDS011;22958;51.232;6.826;2024-02-21T12:04:18;17.73;;;4.05;;
37049;SDS011;22958;51.232;6.826;2024-02-21T12:06:45;12.32;;;3.60;;
37049;SDS011;22958;51.232;6.826;2024-02-21T12:09:14;12.32;;;4.15;;
37049;SDS011;22958;51.232;6.826;2024-02-21T12:11:43;16.85;;;4.00;;
37049;SDS011;22958;51.232;6.826;2024-02-21T12:16:36;16.88;;;4.22;;
37049;SDS011;22958;51.232;6.826;2024-02-21T12:19:02;14.23;;;4.28;;
37049;SDS011;22958;51.232;6.826;2024-02-21T12:21:31;16.40;;;3.53;;
37049;SDS011;22958;51.232;6.826;2024-02-21T12:23:59;16.50;;;3.67;;
37049;SDS011;22958;51.232;6.826;2024-02-21T12:26:25;12.07;;;3.17;;
37049;SDS011;22958;51.232;6.826;2024-02-21T12:28:51;21.08;;;3.83;;
37049;SDS011;22958;51.232;6.826;2024-02-21T12:31:18;12.02;;;3.90;;
37049;SDS011;22958;51.232;6.826;2024-02-21T12:33:44;15.60;;;3.83;;
37049;SDS011;22958;51.232;6.826;2024-02-21T12:36:09;14.77;;;4.20;;
37049;SDS011;22958;51.232;6.826;2024-02-21T12:38:35;14.77;;;3.70;;
37049;SDS011;22958;51.232;6.826;2024-02-21T12:41:01;14.35;;;4.03;;
37049;SDS011;22958;51.232;6.826;2024-02-21T12:45:53;20.33;;;3.75;;
37049;SDS011;22958;51.232;6.826;2024-02-21T12:48:19;14.70;;;3.30;;
37049;SDS011;22958;51.232;6.826;2024-02-21T12:50:48;12.00;;;3.17;;
37049;SDS011;22958;51.232;6.826;2024-02-21T12:53:18;17.92;;;2.95;;
37049;SDS011;22958;51.232;6.826;2024-02-21T12:55:46;12.80;;;2.75;;
37049;SDS011;22958;51.232;6.826;2024-02-21T12:58:13;15.05;;;3.60;;
37049;SDS011;22958;51.232;6.826;2024-02-21T13:00:39;17.57;;;4.37;;
37049;SDS011;22958;51.232;6.826;2024-02-21T13:03:05;14.18;;;3.35;;
37049;SDS011;22958;51.232;6.826;2024-02-21T13:05:30;17.60;;;3.87;;
37049;SDS011;22958;51.232;6.826;2024-02-21T13:07:57;12.30;;;3.53;;
37049;SDS011;22958;51.232;6.826;2024-02-21T13:10:23;16.90;;;3.35;;
37049;SDS011;22958;51.232;6.826;2024-02-21T13:12:48;14.77;;;3.93;;
37049;SDS011;22958;51.232;6.826;2024-02-21T13:15:14;14.57;;;3.40;;
37049;SDS011;22958;51.232;6.826;2024-02-21T13:17:41;14.43;;;3.97;;
37049;SDS011;22958;51.232;6.826;2024-02-21T13:20:06;12.60;;;3.27;;
37049;SDS011;22958;51.232;6.826;2024-02-21T13:22:33;15.48;;;3.47;;
37049;SDS011;22958;51.232;6.826;2024-02-21T13:24:59;16.97;;;3.50;;
37049;SDS011;22958;51.232;6.826;2024-02-21T13:27:25;8.82;;;3.15;;
37049;SDS011;22958;51.232;6.826;2024-02-21T13:29:51;25.33;;;3.87;;
37049;SDS011;22958;51.232;6.826;2024-02-21T13:32:17;16.92;;;3.53;;
37049;SDS011;22958;51.232;6.826;2024-02-21T13:34:43;17.03;;;4.70;;
37049;SDS011;22958;51.232;6.826;2024-02-21T13:37:09;14.13;;;3.30;;
37049;SDS011;22958;51.232;6.826;2024-02-21T13:39:35;17.23;;;3.80;;
37049;SDS011;22958;51.232;6.826;2024-02-21T13:42:01;21.80;;;4.05;;
37049;SDS011;22958;51.232;6.826;2024-02-21T13:44:27;20.25;;;4.13;;
37049;SDS011;22958;51.232;6.826;2024-02-21T13:46:53;14.13;;;3.20;;
37049;SDS011;22958;51.232;6.826;2024-02-21T13:49:19;16.50;;;2.97;;
37049;SDS011;22958;51.232;6.826;2024-02-21T13:51:44;22.60;;;3.80;;
37049;SDS011;22958;51.232;6.826;2024-02-21T13:54:10;13.02;;;3.45;;
37049;SDS011;22958;51.232;6.826;2024-02-21T13:56:36;14.43;;;3.97;;
37049;SDS011;22958;51.232;6.826;2024-02-21T13:59:02;16.80;;;4.00;;
37049;SDS011;22958;51.232;6.826;2024-02-21T14:01:28;15.77;;;3.60;;
37049;SDS011;22958;51.232;6.826;2024-02-21T14:03:54;16.17;;;3.87;;
37049;SDS011;22958;51.232;6.826;2024-02-21T14:06:19;14.77;;;4.43;;
37049;SDS011;22958;51.232;6.826;2024-02-21T14:08:45;10.33;;;3.33;;
37049;SDS011;22958;51.232;6.826;2024-02-21T14:11:10;10.00;;;3.23;;
37049;SDS011;22958;51.232;6.826;2024-02-21T14:13:36;21.93;;;4.03;;
37049;SDS011;22958;51.232;6.826;2024-02-21T14:16:02;16.13;;;3.60;;
37049;SDS011;22958;51.232;6.826;2024-02-21T14:18:27;13.67;;;3.13;;
37049;SDS011;22958;51.232;6.826;2024-02-21T14:20:53;20.60;;;3.97;;
37049;SDS011;22958;51.232;6.826;2024-02-21T14:23:18;17.07;;;3.70;;
37049;SDS011;22958;51.232;6.826;2024-02-21T14:25:44;19.17;;;3.70;;
37049;SDS011;22958;51.232;6.826;2024-02-21T14:28:09;15.40;;;3.90;;
37049;SDS011;22958;51.232;6.826;2024-02-21T14:30:35;15.30;;;4.00;;
37049;SDS011;22958;51.232;6.826;2024-02-21T14:33:01;16.07;;;3.83;;
37049;SDS011;22958;51.232;6.826;2024-02-21T14:35:27;19.88;;;5.07;;
37049;SDS011;22958;51.232;6.826;2024-02-21T14:37:53;14.60;;;3.57;;
37049;SDS011;22958;51.232;6.826;2024-02-21T14:40:22;18.33;;;3.42;;
37049;SDS011;22958;51.232;6.826;2024-02-21T14:42:48;9.90;;;3.60;;
37049;SDS011;22958;51.232;6.826;2024-02-21T14:45:13;18.60;;;3.87;;
37049;SDS011;22958;51.232;6.826;2024-02-21T14:47:39;16.60;;;3.27;;
37049;SDS011;22958;51.232;6.826;2024-02-21T14:50:05;15.67;;;3.67;;
37049;SDS011;22958;51.232;6.826;2024-02-21T14:52:32;15.13;;;3.45;;